Aérodrome :
LOGIN :

S'inscrire | Disclaimer

   EN    FR    IT 

 










Légende :    VFR   VFR Marginal   IFR   IFR Intensif   IFR Très Intensif
Visi : 
Plafond : 
>= 8 km
>= 3000ft
5 à 8 km
1000 à 3000 ft
1500m à 5 km
500 à 1000 ft
800 à 1500m
200 à 500 ft
< 800m
< 200 ft
Symboles :   Orages  Brouillard  Fortes neiges  Fortes précipitations  Vent > 20 kt
SIGMETs :   Divers  Orages  Givrage  Turbulence  Onde Orograph.  Cendres Volcan.







- Altitude de l'aérodrome : 1411 ft
- Code IATA : SZG


LOWS - Salzburg

DERNIER METAR :
  • 201150Z 14006KT 9999 -RA FEW005 SCT040 BKN060 13/12 Q1003 TEMPO RA

METARs EXPIRÉS :
  • 201120Z 15006KT 110V180 9999 -RA FEW005 SCT045 BKN060 13/12 Q1002 TEMPO RA
  • 201050Z 15006KT 120V200 9999 -RA FEW005 SCT040 BKN060 13/11 Q1002 TEMPO RA
  • 201020Z 14005KT 110V190 9999 -RA FEW005 SCT035 BKN060 13/12 Q1002 TEMPO RA
  • 200950Z 15007KT 110V210 9999 -RA FEW005 SCT035 BKN060 13/11 Q1002 TEMPO RA
  • 200920Z 15006KT 110V220 9999 -RA FEW005 SCT035 BKN060 13/11 Q1002 TEMPO RA

TAF TAF LOWS
Valide du 20 à 12h jusqu'au 21 à 12h UTC


201115Z 2012/2112 15006KT 9999 -RA SCT025 BKN050 TX14/2015Z TN10/2103Z
TEMPO 2012/2106 29008KT 4000 RA SCT010 BKN025
PROB30
TEMPO 2012/2016 SCT010 FEW020CB BKN025
PROB30
TEMPO 2021/2106 22012KT 2000 +RA BKN009
BECMG 2106/2108 29008KT 8000 RA SCT010 BKN025
TEMPO 2106/2112 30015G25KT 2000 +RA BKN009
Pas de NOTAMs connus pour ce terrain.



MET'MAP, la Météo Aéronautique d'un coup d'oeil ! - Copyright ORBIFLY Décembre 2007 - Disclaimer

ORBIFLY MET'MAP TEAM :

Programmation & Développement : Alexandra Zaïnal
Conception & Développement : Baudouin d'Aumeries
Co-Programmation & Développement : Marc-Olivier Méhu
Soutien technique & logistique : Manuel Goepfert

Contact : metmap@orbifly.com




SOURCES & CREDITS :

   NOAA